createdAt,value
2023-02-06T00:02:08.668Z,43.13
2023-02-06T00:05:11.224Z,36.85
2023-02-06T00:08:15.140Z,53.67
2023-02-06T00:11:17.858Z,64.65
2023-02-06T00:14:20.438Z,47.53
2023-02-06T00:17:23.010Z,43.65
2023-02-06T00:20:25.589Z,39.00
2023-02-06T00:23:29.496Z,44.47
2023-02-06T00:26:32.308Z,45.45
2023-02-06T00:29:34.861Z,46.88
2023-02-06T00:32:37.482Z,49.30
2023-02-06T00:35:40.056Z,46.80
2023-02-06T00:38:43.936Z,32.30
2023-02-06T00:41:46.477Z,35.30
2023-02-06T00:44:49.068Z,37.70
2023-02-06T00:47:51.662Z,49.55
2023-02-06T00:50:54.512Z,52.10
2023-02-06T00:53:58.429Z,53.13
2023-02-06T00:57:00.999Z,39.85
2023-02-06T01:00:03.648Z,47.55
2023-02-06T01:03:06.225Z,42.58
2023-02-06T01:06:08.836Z,57.95
2023-02-06T01:09:12.798Z,45.15
2023-02-06T01:12:15.336Z,48.30
2023-02-06T01:15:17.858Z,41.28
2023-02-06T01:18:20.439Z,47.83
2023-02-06T01:21:24.045Z,46.70
2023-02-06T01:24:28.044Z,44.35
2023-02-06T01:27:30.593Z,37.53
2023-02-06T01:30:33.310Z,42.88
2023-02-06T01:33:35.895Z,41.70
2023-02-06T01:36:38.492Z,42.65
2023-02-06T01:39:42.372Z,45.42
2023-02-06T01:42:45.010Z,41.67
2023-02-06T01:45:47.736Z,39.35
2023-02-06T01:48:51.751Z,47.13
2023-02-06T01:51:54.692Z,44.50
2023-02-06T01:55:00.123Z,42.50
2023-02-06T01:58:02.635Z,49.33
2023-02-06T02:01:05.925Z,46.42
2023-02-06T02:04:09.393Z,48.10
2023-02-06T02:07:13.536Z,43.72
2023-02-06T02:10:17.512Z,37.90
2023-02-06T02:13:20.044Z,44.80
2023-02-06T02:16:25.073Z,35.55
2023-02-06T02:20:13.374Z,33.63
2023-02-06T02:23:21.469Z,30.50
2023-02-06T02:26:47.942Z,36.92
2023-02-06T02:30:28.439Z,44.70
2023-02-06T02:34:05.673Z,53.55
2023-02-06T02:37:11.961Z,46.13
2023-02-06T02:40:19.210Z,35.17
2023-02-06T02:43:27.022Z,45.20
2023-02-06T02:46:31.891Z,42.55
2023-02-06T02:49:34.650Z,42.17
2023-02-06T02:52:38.597Z,32.17
2023-02-06T02:55:41.220Z,40.10
2023-02-06T02:58:43.752Z,40.00
2023-02-06T03:01:49.732Z,36.70
2023-02-06T03:04:53.595Z,43.80
2023-02-06T03:08:03.853Z,28.42
2023-02-06T03:11:10.301Z,45.35
2023-02-06T03:14:16.525Z,27.77
2023-02-06T03:17:20.785Z,37.85
2023-02-06T03:20:23.313Z,38.10
2023-02-06T03:23:29.636Z,39.17
2023-02-06T03:26:32.228Z,34.58
2023-02-06T03:29:35.169Z,35.03
2023-02-06T03:32:39.619Z,38.28
2023-02-06T03:35:42.240Z,42.67
2023-02-06T03:38:46.461Z,38.67
2023-02-06T03:41:49.068Z,41.30
2023-02-06T03:44:53.657Z,45.92
2023-02-06T03:47:57.295Z,39.75
2023-02-06T03:51:00.503Z,33.88
2023-02-06T03:54:05.168Z,39.85
2023-02-06T03:57:08.565Z,31.40
2023-02-06T04:00:12.469Z,34.30
2023-02-06T04:03:15.005Z,44.15
2023-02-06T04:06:17.581Z,28.92
2023-02-06T04:09:21.475Z,35.67
2023-02-06T04:12:24.084Z,35.88
2023-02-06T04:15:26.606Z,38.78
2023-02-06T04:18:29.126Z,33.33
2023-02-06T04:21:31.640Z,27.70
2023-02-06T04:24:36.705Z,27.83
2023-02-06T04:27:39.354Z,26.40
2023-02-06T04:30:42.082Z,33.83
2023-02-06T04:33:44.743Z,24.52
2023-02-06T04:36:47.342Z,32.80
2023-02-06T04:39:51.261Z,36.63
2023-02-06T04:42:53.792Z,32.05
2023-02-06T04:45:56.383Z,34.28
2023-02-06T04:48:58.911Z,37.78
2023-02-06T04:52:01.442Z,34.67
2023-02-06T04:55:05.558Z,32.92
2023-02-06T04:58:08.086Z,42.78
2023-02-06T05:01:10.669Z,37.50
2023-02-06T05:04:13.238Z,36.80
2023-02-06T05:07:15.791Z,39.13
2023-02-06T05:10:19.883Z,37.65
2023-02-06T05:13:22.387Z,33.15
2023-02-06T05:16:24.976Z,44.53
2023-02-06T05:19:27.565Z,41.22
2023-02-06T05:22:30.150Z,41.15
2023-02-06T05:25:35.164Z,33.33
2023-02-06T05:28:37.863Z,24.92
2023-02-06T05:31:40.623Z,33.17
2023-02-06T05:34:43.184Z,42.38
2023-02-06T05:37:45.743Z,43.78
2023-02-06T05:40:52.320Z,44.95
2023-02-06T05:43:54.875Z,40.97
2023-02-06T05:46:57.605Z,35.70
2023-02-06T05:50:00.194Z,39.05
2023-02-06T05:53:02.751Z,32.30
2023-02-06T05:56:07.262Z,30.85
2023-02-06T05:59:09.805Z,24.83
2023-02-06T06:02:12.382Z,40.20
2023-02-06T06:05:14.964Z,38.10
2023-02-06T06:08:17.524Z,31.27
2023-02-06T06:11:21.440Z,32.00
2023-02-06T06:14:24.001Z,37.05
2023-02-06T06:17:26.572Z,37.97
2023-02-06T06:20:29.160Z,37.53
2023-02-06T06:23:31.736Z,40.53
2023-02-06T06:26:35.662Z,28.48
2023-02-06T06:29:38.270Z,39.95
2023-02-06T06:32:40.856Z,35.90
2023-02-06T06:35:43.452Z,28.05
2023-02-06T06:38:46.078Z,43.13
2023-02-06T06:41:50.014Z,37.95
2023-02-06T06:44:52.551Z,46.55
2023-02-06T06:47:55.078Z,46.33
2023-02-06T06:50:57.617Z,37.67
2023-02-06T06:54:00.180Z,39.83
2023-02-06T06:57:04.129Z,36.00
2023-02-06T07:00:07.391Z,42.63
2023-02-06T07:03:11.623Z,35.75
2023-02-06T07:06:14.243Z,36.05
2023-02-06T07:09:17.057Z,34.75
2023-02-06T07:12:21.065Z,30.65
2023-02-06T07:15:23.683Z,31.42
2023-02-06T07:18:26.215Z,42.05
2023-02-06T07:21:28.844Z,40.33
2023-02-06T07:24:31.380Z,36.42
2023-02-06T07:27:35.300Z,32.10
2023-02-06T07:30:37.866Z,42.40
2023-02-06T07:33:40.441Z,37.85
2023-02-06T07:36:43.101Z,36.75
2023-02-06T07:39:45.673Z,33.53
2023-02-06T07:42:49.630Z,32.22
2023-02-06T07:45:52.237Z,36.50
2023-02-06T07:48:54.777Z,35.08
2023-02-06T07:51:57.389Z,33.25
2023-02-06T07:54:59.941Z,35.35
2023-02-06T07:58:03.877Z,31.15
2023-02-06T08:01:06.760Z,35.38
2023-02-06T08:04:09.383Z,33.50
2023-02-06T08:07:14.891Z,44.50
2023-02-06T08:10:17.834Z,41.05
2023-02-06T08:13:21.729Z,44.95
2023-02-06T08:16:24.608Z,26.35
2023-02-06T08:19:27.177Z,39.20
2023-02-06T08:22:29.730Z,37.05
2023-02-06T08:25:32.328Z,45.92
2023-02-06T08:28:36.366Z,44.20
2023-02-06T08:31:39.825Z,46.78
2023-02-06T08:34:42.516Z,37.83
2023-02-06T08:37:45.059Z,41.90
2023-02-06T08:40:47.588Z,33.83
2023-02-06T08:43:52.750Z,33.45
2023-02-06T08:47:08.879Z,43.55
2023-02-06T08:50:12.414Z,44.03
2023-02-06T08:53:14.953Z,36.00
2023-02-06T08:56:17.483Z,36.17
2023-02-06T08:59:21.363Z,30.83
2023-02-06T09:02:24.049Z,30.80
2023-02-06T09:05:26.677Z,47.80
2023-02-06T09:08:29.204Z,22.92
2023-02-06T09:11:31.943Z,26.70
2023-02-06T09:14:35.824Z,24.15
2023-02-06T09:17:38.329Z,25.80
2023-02-06T09:20:40.853Z,25.83
2023-02-06T09:23:44.385Z,31.25
2023-02-06T09:26:59.113Z,26.90
2023-02-06T09:30:04.371Z,27.85
2023-02-06T09:33:06.955Z,29.65
2023-02-06T09:36:11.061Z,25.30
2023-02-06T09:39:13.674Z,20.13
2023-02-06T09:42:26.409Z,30.15
2023-02-06T09:45:30.665Z,27.40
2023-02-06T09:48:34.496Z,27.95
2023-02-06T09:51:42.355Z,21.52
2023-02-06T09:54:47.752Z,20.92
2023-02-06T09:57:52.861Z,21.30
2023-02-06T10:01:06.846Z,19.10
2023-02-06T10:04:22.480Z,25.48
2023-02-06T10:07:44.939Z,26.70
2023-02-06T10:10:50.031Z,20.08
2023-02-06T10:13:55.044Z,31.92
2023-02-06T10:17:00.861Z,19.83
2023-02-06T10:20:05.937Z,24.33
2023-02-06T10:23:13.504Z,24.40
2023-02-06T10:26:18.191Z,22.70
2023-02-06T10:29:24.653Z,22.20
2023-02-06T10:32:35.832Z,27.15
2023-02-06T10:35:44.228Z,36.28
2023-02-06T10:39:12.781Z,15.48
2023-02-06T10:42:17.676Z,24.65
2023-02-06T10:45:30.737Z,26.52
2023-02-06T10:48:37.167Z,22.25
2023-02-06T10:51:42.404Z,16.77
2023-02-06T10:54:48.520Z,26.15
2023-02-06T10:57:54.736Z,18.00
2023-02-06T11:00:57.349Z,26.25
2023-02-06T11:04:04.597Z,22.60
2023-02-06T11:07:09.212Z,28.70
2023-02-06T11:10:13.567Z,19.73
2023-02-06T11:13:21.486Z,25.38
2023-02-06T11:16:26.031Z,21.83
2023-02-06T11:19:32.116Z,17.55
2023-02-06T11:22:44.283Z,26.80
2023-02-06T11:25:58.825Z,15.30
2023-02-06T11:29:03.393Z,24.30
2023-02-06T11:32:06.745Z,19.48
2023-02-06T11:35:21.748Z,19.58
2023-02-06T11:38:25.708Z,19.02
2023-02-06T11:41:28.329Z,14.25
2023-02-06T11:44:37.946Z,22.17
2023-02-06T11:47:40.486Z,24.75
2023-02-06T11:50:44.413Z,16.02
2023-02-06T11:53:56.733Z,17.98
2023-02-06T11:57:04.845Z,10.93
2023-02-06T12:00:20.807Z,18.52
2023-02-06T12:03:28.351Z,19.63
2023-02-06T12:06:33.692Z,19.08
2023-02-06T12:09:36.228Z,13.35
2023-02-06T12:12:40.682Z,16.00
2023-02-06T12:15:47.330Z,10.80
2023-02-06T12:21:56.270Z,17.48
2023-02-06T12:25:00.037Z,18.42
2023-02-06T12:28:05.679Z,21.65
2023-02-06T12:31:10.442Z,22.40
2023-02-06T12:34:14.908Z,19.58
2023-02-06T12:37:22.139Z,18.40
2023-02-06T12:40:36.136Z,11.07
2023-02-06T12:43:38.890Z,14.15
2023-02-06T12:46:41.501Z,16.77
2023-02-06T12:49:50.038Z,15.98
2023-02-06T12:52:56.593Z,18.75
2023-02-06T12:56:02.142Z,21.63
2023-02-06T12:59:15.535Z,23.73
2023-02-06T13:02:22.311Z,17.83
2023-02-06T13:05:27.637Z,24.05
2023-02-06T13:08:43.602Z,19.85
2023-02-06T13:11:46.164Z,21.58
2023-02-06T13:14:50.179Z,18.95
2023-02-06T13:17:54.215Z,19.40
2023-02-06T13:21:16.699Z,20.20
2023-02-06T13:24:21.220Z,19.88
2023-02-06T13:27:24.626Z,23.08
2023-02-06T13:30:46.447Z,15.73
2023-02-06T13:33:49.402Z,16.00
2023-02-06T13:36:55.170Z,14.77
2023-02-06T13:40:20.886Z,17.88
2023-02-06T13:43:26.642Z,10.60
2023-02-06T13:46:39.659Z,15.23
2023-02-06T13:50:26.367Z,20.88
2023-02-06T13:53:36.011Z,15.60
2023-02-06T13:56:46.182Z,17.92
2023-02-06T13:59:50.377Z,13.85
2023-02-06T14:02:55.218Z,13.27
2023-02-06T14:06:01.116Z,20.23
2023-02-06T14:09:09.427Z,18.33
2023-02-06T14:12:32.891Z,24.05
2023-02-06T14:15:39.446Z,16.88
2023-02-06T14:18:45.466Z,15.95
2023-02-06T14:21:53.020Z,16.60
2023-02-06T14:25:05.268Z,24.03
2023-02-06T14:28:15.228Z,13.70
2023-02-06T14:31:24.661Z,23.90
2023-02-06T14:34:35.485Z,27.35
2023-02-06T14:37:55.181Z,22.38
2023-02-06T14:40:59.261Z,21.45
2023-02-06T14:44:03.228Z,16.55
2023-02-06T14:47:05.825Z,19.98
2023-02-06T14:50:09.102Z,14.32
2023-02-06T14:53:18.674Z,18.60
2023-02-06T14:56:26.191Z,15.52
2023-02-06T14:59:30.446Z,19.55
2023-02-06T15:02:36.981Z,21.00
2023-02-06T15:05:39.508Z,19.63
2023-02-06T15:08:48.394Z,18.67
2023-02-06T15:11:51.752Z,18.17
2023-02-06T15:14:56.548Z,17.08
2023-02-06T15:18:00.320Z,14.70
2023-02-06T15:21:03.647Z,22.23
2023-02-06T15:24:09.128Z,20.15
2023-02-06T15:27:15.763Z,19.88
2023-02-06T15:30:21.502Z,13.97
2023-02-06T15:33:27.585Z,13.80
2023-02-06T15:36:31.866Z,13.25
2023-02-06T15:39:34.449Z,30.15
2023-02-06T15:42:37.066Z,13.13
2023-02-06T15:45:41.530Z,15.48
2023-02-06T15:48:50.458Z,8.10
2023-02-06T15:51:53.967Z,16.75
2023-02-06T15:54:58.063Z,20.20
2023-02-06T15:58:01.482Z,19.45
2023-02-06T16:01:05.918Z,23.23
2023-02-06T16:04:10.151Z,16.48
2023-02-06T16:07:14.192Z,12.70
2023-02-06T16:10:21.314Z,11.35
2023-02-06T16:13:26.488Z,18.67
2023-02-06T16:16:30.412Z,19.30
2023-02-06T16:19:42.181Z,22.40
2023-02-06T16:22:44.712Z,17.77
2023-02-06T16:25:47.368Z,12.00
2023-02-06T16:28:57.872Z,13.20
2023-02-06T16:32:02.834Z,19.42
2023-02-06T16:35:05.814Z,22.10
2023-02-06T16:38:10.137Z,14.73
2023-02-06T16:41:25.120Z,16.50
2023-02-06T16:44:42.993Z,17.33
2023-02-06T16:47:48.097Z,10.40
2023-02-06T16:50:50.675Z,16.38
2023-02-06T16:53:53.366Z,22.45
2023-02-06T16:56:57.017Z,12.75
2023-02-06T16:59:59.658Z,13.57
2023-02-06T17:03:03.570Z,15.52
2023-02-06T17:06:06.486Z,20.00
2023-02-06T17:09:10.964Z,14.23
2023-02-06T17:12:14.718Z,13.63
2023-02-06T17:15:17.943Z,17.35
2023-02-06T17:18:22.512Z,8.70
2023-02-06T17:21:27.299Z,20.48
2023-02-06T17:24:29.863Z,11.80
2023-02-06T17:27:32.403Z,12.52
2023-02-06T17:30:35.839Z,15.05
2023-02-06T17:33:39.936Z,15.52
2023-02-06T17:36:43.097Z,21.02
2023-02-06T17:39:45.678Z,26.60
2023-02-06T17:42:48.735Z,23.70
2023-02-06T17:45:51.290Z,46.28
2023-02-06T17:48:55.166Z,23.67
2023-02-06T17:51:57.695Z,23.45
2023-02-06T17:55:00.269Z,19.77
2023-02-06T17:58:02.933Z,22.77
2023-02-06T18:01:05.564Z,23.45
2023-02-06T18:04:12.554Z,16.10
2023-02-06T18:07:15.150Z,13.73
2023-02-06T18:10:17.881Z,20.90
2023-02-06T18:13:21.084Z,19.35
2023-02-06T18:16:24.963Z,19.40
2023-02-06T18:19:28.902Z,12.40
2023-02-06T18:22:38.085Z,19.75
2023-02-06T18:25:43.154Z,17.33
2023-02-06T18:28:45.991Z,17.42
2023-02-06T18:31:48.670Z,27.95
2023-02-06T18:34:52.601Z,24.67
2023-02-06T18:37:55.392Z,26.17
2023-02-06T18:41:02.896Z,21.00
2023-02-06T18:47:07.426Z,25.55
2023-02-06T18:50:11.455Z,17.17
2023-02-06T18:53:14.085Z,23.92
2023-02-06T18:56:16.748Z,28.13
2023-02-06T18:59:19.357Z,21.77
2023-02-06T19:02:22.047Z,20.30
2023-02-06T19:05:25.988Z,18.08
2023-02-06T19:08:28.556Z,19.45
2023-02-06T19:11:31.080Z,22.73
2023-02-06T19:14:33.677Z,18.20
2023-02-06T19:17:36.233Z,19.98
2023-02-06T19:20:43.285Z,21.20
2023-02-06T19:23:46.354Z,20.77
2023-02-06T19:26:48.951Z,18.55
2023-02-06T19:29:51.500Z,16.77
2023-02-06T19:32:54.084Z,23.75
2023-02-06T19:35:58.017Z,19.05
2023-02-06T19:39:01.507Z,14.60
2023-02-06T19:42:06.615Z,25.88
2023-02-06T19:45:09.511Z,12.45
2023-02-06T19:48:13.744Z,24.00
2023-02-06T19:51:20.138Z,17.75
2023-02-06T19:54:22.732Z,15.57
2023-02-06T19:57:25.263Z,15.38
2023-02-06T20:00:27.878Z,16.40
2023-02-06T20:03:30.701Z,17.80
2023-02-06T20:06:35.424Z,16.60
2023-02-06T20:09:41.676Z,14.10
2023-02-06T20:12:44.277Z,10.88
2023-02-06T20:15:46.896Z,9.98
2023-02-06T20:18:49.446Z,10.57
2023-02-06T20:21:54.348Z,19.38
2023-02-06T20:24:56.965Z,20.48
2023-02-06T20:27:59.970Z,14.15
2023-02-06T20:31:08.500Z,19.80
2023-02-06T20:34:11.177Z,33.83
2023-02-06T20:37:17.579Z,18.08
2023-02-06T20:40:20.277Z,20.75
2023-02-06T20:43:22.918Z,19.90
2023-02-06T20:46:26.379Z,14.20
2023-02-06T20:49:31.221Z,17.75
2023-02-06T20:52:35.313Z,18.55
2023-02-06T20:55:41.516Z,19.85
2023-02-06T20:58:44.237Z,17.35
2023-02-06T21:01:46.785Z,19.58
2023-02-06T21:04:52.047Z,23.58
2023-02-06T21:07:57.590Z,20.10
2023-02-06T21:11:00.271Z,20.55
2023-02-06T21:14:03.669Z,25.48
2023-02-06T21:17:06.224Z,21.00
2023-02-06T21:20:09.745Z,16.33
2023-02-06T21:23:13.724Z,22.10
2023-02-06T21:26:17.521Z,18.42
2023-02-06T21:29:22.847Z,18.75
2023-02-06T21:32:25.476Z,13.75
2023-02-06T21:35:30.202Z,12.43
2023-02-06T21:38:34.213Z,13.10
2023-02-06T21:41:36.824Z,11.52
2023-02-06T21:44:39.366Z,13.85
2023-02-06T21:47:42.047Z,16.00
2023-02-06T21:50:44.969Z,16.92
2023-02-06T21:53:48.910Z,21.10
2023-02-06T21:56:51.628Z,23.73
2023-02-06T21:59:54.150Z,18.55
2023-02-06T22:02:56.741Z,21.80
2023-02-06T22:06:07.326Z,17.88
2023-02-06T22:09:16.252Z,17.30
2023-02-06T22:12:18.848Z,17.63
2023-02-06T22:15:21.478Z,11.00
2023-02-06T22:18:24.057Z,15.27
2023-02-06T22:21:27.443Z,16.48
2023-02-06T22:24:31.322Z,22.00
2023-02-06T22:27:33.933Z,24.10
2023-02-06T22:30:36.567Z,18.83
2023-02-06T22:33:39.250Z,24.20
2023-02-06T22:36:42.693Z,26.13
2023-02-06T22:39:46.840Z,30.75
2023-02-06T22:42:49.375Z,19.13
2023-02-06T22:45:51.961Z,14.43
2023-02-06T22:48:54.523Z,25.48
2023-02-06T22:51:57.872Z,14.98
2023-02-06T22:55:03.175Z,20.67
2023-02-06T22:58:05.724Z,20.90
2023-02-06T23:01:08.288Z,5.50
2023-02-06T23:04:12.411Z,7.28
2023-02-06T23:07:15.087Z,7.57
2023-02-06T23:10:19.483Z,11.68
2023-02-06T23:13:22.088Z,12.68
2023-02-06T23:16:24.857Z,10.30
2023-02-06T23:19:27.413Z,15.40
2023-02-06T23:22:29.941Z,10.70
2023-02-06T23:25:33.889Z,11.77
2023-02-06T23:28:36.475Z,12.88
2023-02-06T23:31:39.054Z,19.45
2023-02-06T23:34:41.589Z,15.43
2023-02-06T23:37:44.138Z,21.17
2023-02-06T23:40:48.660Z,21.60
2023-02-06T23:43:51.506Z,23.02
2023-02-06T23:46:54.266Z,24.83
2023-02-06T23:49:56.845Z,31.45
2023-02-06T23:52:59.425Z,20.55
2023-02-06T23:56:03.782Z,23.85
2023-02-06T23:59:06.573Z,16.02
